createdAt,value
2018-04-01T00:01:03.047Z,95.62
2018-04-01T00:03:30.075Z,95.48
2018-04-01T00:05:57.253Z,94.71
2018-04-01T00:08:24.293Z,94.76
2018-04-01T00:10:51.383Z,95.12
2018-04-01T00:13:18.436Z,95.10
2018-04-01T00:15:45.459Z,94.98
2018-04-01T00:18:12.511Z,94.95
2018-04-01T00:20:39.521Z,94.83
2018-04-01T00:23:06.578Z,94.78
2018-04-01T00:25:33.579Z,95.00
2018-04-01T00:28:00.646Z,94.91
2018-04-01T00:30:27.713Z,94.74
2018-04-01T00:32:54.776Z,94.55
2018-04-01T00:35:21.791Z,94.65
2018-04-01T00:37:48.853Z,94.69
2018-04-01T00:40:15.890Z,94.73
2018-04-01T00:42:43.049Z,94.92
2018-04-01T00:45:10.063Z,94.95
2018-04-01T00:47:37.132Z,94.64
2018-04-01T00:50:04.132Z,94.69
2018-04-01T00:52:31.150Z,94.26
2018-04-01T00:54:58.201Z,94.22
2018-04-01T00:57:25.230Z,94.32
2018-04-01T00:59:52.275Z,94.29
2018-04-01T01:02:19.326Z,94.01
2018-04-01T01:04:47.486Z,93.85
2018-04-01T01:07:14.486Z,93.63
2018-04-01T01:09:41.535Z,93.47
2018-04-01T01:12:08.571Z,93.39
2018-04-01T01:14:35.646Z,93.89
2018-04-01T01:17:02.686Z,94.14
2018-04-01T01:19:29.733Z,93.84
2018-04-01T01:21:56.774Z,93.55
2018-04-01T01:24:23.828Z,93.19
2018-04-01T01:26:50.883Z,93.35
2018-04-01T01:29:17.890Z,93.60
2018-04-01T01:31:44.947Z,93.66
2018-04-01T01:34:11.953Z,93.53
2018-04-01T01:36:39.005Z,92.87
2018-04-01T01:39:06.013Z,92.56
2018-04-01T01:41:33.058Z,92.28
2018-04-01T01:44:00.074Z,92.28
2018-04-01T01:46:27.128Z,92.92
2018-04-01T01:48:54.140Z,93.56
2018-04-01T01:51:21.203Z,93.91
2018-04-01T01:53:48.207Z,94.08
2018-04-01T01:56:15.279Z,93.94
2018-04-01T01:58:42.283Z,94.17
2018-04-01T02:01:09.360Z,94.11
2018-04-01T02:03:36.369Z,93.92
2018-04-01T02:06:03.441Z,94.14
2018-04-01T02:08:30.492Z,94.74
2018-04-01T02:10:57.511Z,94.93
2018-04-01T02:13:24.573Z,94.91
2018-04-01T02:15:51.668Z,94.61
2018-04-01T02:18:18.751Z,94.67
2018-04-01T02:20:45.758Z,94.62
2018-04-01T02:23:12.813Z,94.14
2018-04-01T02:25:39.819Z,94.39
2018-04-01T02:28:06.862Z,94.67
2018-04-01T02:30:33.919Z,94.58
2018-04-01T02:33:00.980Z,94.45
2018-04-01T02:35:27.998Z,93.47
2018-04-01T02:37:55.131Z,93.72
2018-04-01T02:40:22.157Z,93.75
2018-04-01T02:42:49.243Z,93.20
2018-04-01T02:45:16.275Z,92.93
2018-04-01T02:47:43.311Z,92.49
2018-04-01T02:50:10.348Z,92.07
2018-04-01T02:52:37.357Z,92.48
2018-04-01T02:55:04.429Z,92.52
2018-04-01T02:57:31.519Z,92.27
2018-04-01T02:59:58.579Z,92.36
2018-04-01T03:02:25.588Z,91.98
2018-04-01T03:04:52.647Z,92.02
2018-04-01T03:07:19.646Z,92.69
2018-04-01T03:09:46.695Z,93.12
2018-04-01T03:12:13.760Z,93.78
2018-04-01T03:14:40.808Z,94.31
2018-04-01T03:17:07.825Z,94.49
2018-04-01T03:19:34.890Z,94.69
2018-04-01T03:22:01.917Z,94.86
2018-04-01T03:24:29.130Z,94.71
2018-04-01T03:26:56.126Z,94.17
2018-04-01T03:29:23.173Z,94.25
2018-04-01T03:31:50.223Z,94.41
2018-04-01T03:34:17.311Z,94.52
2018-04-01T03:36:44.383Z,94.42
2018-04-01T03:39:11.399Z,94.37
2018-04-01T03:41:38.450Z,94.90
2018-04-01T03:44:05.498Z,94.73
2018-04-01T03:46:32.563Z,94.49
2018-04-01T03:48:59.581Z,93.97
2018-04-01T03:51:26.627Z,93.63
2018-04-01T03:53:53.662Z,93.49
2018-04-01T03:56:20.790Z,93.95
2018-04-01T03:58:47.794Z,93.81
2018-04-01T04:01:14.846Z,93.82
2018-04-01T04:03:41.929Z,93.23
2018-04-01T04:06:08.983Z,92.98
2018-04-01T04:08:36.042Z,93.09
2018-04-01T04:11:03.070Z,92.66
2018-04-01T04:13:30.159Z,93.11
2018-04-01T04:15:57.199Z,93.81
2018-04-01T04:18:24.254Z,93.76
2018-04-01T04:20:51.278Z,93.52
2018-04-01T04:23:18.327Z,93.93
2018-04-01T04:25:45.447Z,94.21
2018-04-01T04:28:12.499Z,93.90
2018-04-01T04:30:39.515Z,93.60
2018-04-01T04:33:06.554Z,93.21
2018-04-01T04:35:33.583Z,93.43
2018-04-01T04:38:00.636Z,93.13
2018-04-01T04:40:27.639Z,92.94
2018-04-01T04:42:54.735Z,92.82
2018-04-01T04:45:21.795Z,93.06
2018-04-01T04:47:48.807Z,93.39
2018-04-01T04:50:15.855Z,93.43
2018-04-01T04:52:42.866Z,93.27
2018-04-01T04:55:09.914Z,92.94
2018-04-01T04:57:36.918Z,92.63
2018-04-01T05:00:04.027Z,92.48
2018-04-01T05:02:31.079Z,92.32
2018-04-01T05:04:58.119Z,91.97
2018-04-01T05:07:25.175Z,91.52
2018-04-01T05:09:52.219Z,91.24
2018-04-01T05:12:19.272Z,90.63
2018-04-01T05:14:46.265Z,90.53
2018-04-01T05:17:13.314Z,90.77
2018-04-01T05:19:40.317Z,90.62
2018-04-01T05:22:07.361Z,90.60
2018-04-01T05:24:34.384Z,90.87
2018-04-01T05:27:01.443Z,90.94
2018-04-01T05:29:28.473Z,91.56
2018-04-01T05:31:55.516Z,91.67
2018-04-01T05:34:22.522Z,91.66
2018-04-01T05:36:49.650Z,92.04
2018-04-01T05:39:16.682Z,92.20
2018-04-01T05:41:43.772Z,92.86
2018-04-01T05:44:10.847Z,93.02
2018-04-01T05:46:37.853Z,93.24
2018-04-01T05:49:04.858Z,93.67
2018-04-01T05:51:32.142Z,94.31
2018-04-01T05:53:59.113Z,94.94
2018-04-01T05:56:26.143Z,94.25
2018-04-01T05:58:53.241Z,94.27
2018-04-01T06:01:20.250Z,94.90
2018-04-01T06:03:47.454Z,95.34
2018-04-01T06:06:14.557Z,95.67
2018-04-01T06:08:41.610Z,95.92
2018-04-01T06:11:08.631Z,96.02
2018-04-01T06:13:35.693Z,96.10
2018-04-01T06:16:02.703Z,96.07
2018-04-01T06:18:29.805Z,96.17
2018-04-01T06:20:56.819Z,96.22
2018-04-01T06:23:23.876Z,96.31
2018-04-01T06:25:50.895Z,96.36
2018-04-01T06:28:17.916Z,95.94
2018-04-01T06:30:44.993Z,95.77
2018-04-01T06:33:12.026Z,95.36
2018-04-01T06:35:39.073Z,95.10
2018-04-01T06:38:06.164Z,95.42
2018-04-01T06:40:33.254Z,95.87
2018-04-01T06:43:00.262Z,95.69
2018-04-01T06:45:27.331Z,96.41
2018-04-01T06:47:54.361Z,96.25
2018-04-01T06:50:21.433Z,96.91
2018-04-01T06:52:48.532Z,95.68
2018-04-01T06:55:15.599Z,96.38
2018-04-01T06:57:42.609Z,94.67
2018-04-01T07:00:09.823Z,95.11
2018-04-01T07:02:36.871Z,94.52
2018-04-01T07:05:03.941Z,94.52
2018-04-01T07:07:30.961Z,94.84
2018-04-01T07:09:58.134Z,95.41
2018-04-01T07:12:25.160Z,95.39
2018-04-01T07:14:52.183Z,95.64
2018-04-01T07:17:19.234Z,95.70
2018-04-01T07:19:46.281Z,95.66
2018-04-01T07:22:13.325Z,95.34
2018-04-01T07:24:40.347Z,95.51
2018-04-01T07:27:07.417Z,96.40
2018-04-01T07:29:34.451Z,96.93
2018-04-01T07:32:01.512Z,97.09
2018-04-01T07:34:28.534Z,97.62
2018-04-01T07:36:55.594Z,97.48
2018-04-01T07:39:22.687Z,97.34
2018-04-01T07:41:49.717Z,97.64
2018-04-01T07:44:16.738Z,97.83
2018-04-01T07:46:43.811Z,97.87
2018-04-01T07:49:10.828Z,97.64
2018-04-01T07:51:37.896Z,98.21
2018-04-01T07:54:04.919Z,98.54
2018-04-01T07:56:32.166Z,98.76
2018-04-01T07:58:59.199Z,98.59
2018-04-01T08:01:26.653Z,98.53
2018-04-01T08:03:53.686Z,98.92
2018-04-01T08:06:20.691Z,98.55
2018-04-01T08:08:47.777Z,98.32
2018-04-01T08:11:14.814Z,98.30
2018-04-01T08:13:41.870Z,98.00
2018-04-01T08:16:08.888Z,98.03
2018-04-01T08:18:35.954Z,98.52
2018-04-01T08:21:02.965Z,98.56
2018-04-01T08:23:30.118Z,98.28
2018-04-01T08:25:57.139Z,98.23
2018-04-01T08:28:24.186Z,98.37
2018-04-01T08:30:51.202Z,98.32
2018-04-01T08:33:18.302Z,98.20
2018-04-01T08:35:45.338Z,98.43
2018-04-01T08:38:12.511Z,98.40
2018-04-01T08:40:39.521Z,98.66
2018-04-01T08:43:06.587Z,98.28
2018-04-01T08:45:33.599Z,98.61
2018-04-01T08:48:00.682Z,98.74
2018-04-01T08:50:27.755Z,98.93
2018-04-01T08:52:54.762Z,98.96
2018-04-01T08:55:21.939Z,99.00
2018-04-01T08:57:48.964Z,99.07
2018-04-01T09:00:16.026Z,98.88
2018-04-01T09:02:43.150Z,98.79
2018-04-01T09:05:10.221Z,99.59
2018-04-01T09:07:37.271Z,99.71
2018-04-01T09:10:04.380Z,100.00
2018-04-01T09:12:31.411Z,100.00
2018-04-01T09:14:58.490Z,100.00
2018-04-01T09:17:25.541Z,100.00
2018-04-01T09:19:52.599Z,100.00
2018-04-01T09:22:19.640Z,100.00
2018-04-01T09:24:46.693Z,99.40
2018-04-01T09:27:13.817Z,98.84
2018-04-01T09:29:40.890Z,98.05
2018-04-01T09:32:08.114Z,97.60
2018-04-01T09:34:35.169Z,98.20
2018-04-01T09:37:02.400Z,98.21
2018-04-01T09:39:29.411Z,98.35
2018-04-01T09:41:56.468Z,98.55
2018-04-01T09:44:23.494Z,98.27
2018-04-01T09:46:50.561Z,98.33
2018-04-01T09:49:17.626Z,98.92
2018-04-01T09:51:44.686Z,99.33
2018-04-01T09:54:11.719Z,99.29
2018-04-01T09:56:38.794Z,99.34
2018-04-01T09:59:06.002Z,99.61
2018-04-01T10:01:33.744Z,99.62
2018-04-01T10:04:01.435Z,99.70
2018-04-01T10:06:29.061Z,99.70
2018-04-01T10:08:56.714Z,99.70
2018-04-01T10:11:24.314Z,99.71
2018-04-01T10:13:51.958Z,99.78
2018-04-01T10:16:19.547Z,99.86
2018-04-01T10:18:47.200Z,99.57
2018-04-01T10:21:14.825Z,99.93
2018-04-01T10:23:42.466Z,100.00
2018-04-01T10:26:10.095Z,100.00
2018-04-01T10:28:37.741Z,100.00
2018-04-01T10:31:05.341Z,100.00
2018-04-01T10:33:33.014Z,100.00
2018-04-01T10:36:00.636Z,100.00
2018-04-01T10:38:28.297Z,100.00
2018-04-01T10:40:55.939Z,100.00
2018-04-01T10:43:23.592Z,100.00
2018-04-01T10:45:51.232Z,100.00
2018-04-01T10:48:18.828Z,100.00
2018-04-01T10:50:46.458Z,99.71
2018-04-01T10:53:14.047Z,99.78
2018-04-01T10:55:41.111Z,99.93
2018-04-01T10:58:08.296Z,99.85
2018-04-01T11:00:35.398Z,99.85
2018-04-01T11:03:02.410Z,99.96
2018-04-01T11:05:29.469Z,99.94
2018-04-01T11:07:56.495Z,100.00
2018-04-01T11:10:23.605Z,99.40
2018-04-01T11:12:50.631Z,99.27
2018-04-01T11:15:17.659Z,98.96
2018-04-01T11:17:44.720Z,98.98
2018-04-01T11:20:11.779Z,99.20
2018-04-01T11:22:38.856Z,99.18
2018-04-01T11:25:05.873Z,98.94
2018-04-01T11:27:32.921Z,98.95
2018-04-01T11:29:59.954Z,99.24
2018-04-01T11:32:27.018Z,98.99
2018-04-01T11:34:54.022Z,98.96
2018-04-01T11:37:21.135Z,98.19
2018-04-01T11:39:48.157Z,98.43
2018-04-01T11:42:15.235Z,97.81
2018-04-01T11:44:42.250Z,97.60
2018-04-01T11:47:09.339Z,97.95
2018-04-01T11:49:36.361Z,97.82
2018-04-01T11:52:04.342Z,97.65
2018-04-01T11:54:31.410Z,97.40
2018-04-01T11:56:58.426Z,96.25
2018-04-01T11:59:25.488Z,95.32
2018-04-01T12:01:52.505Z,95.36
2018-04-01T12:04:19.646Z,94.82
2018-04-01T12:06:46.719Z,94.93
2018-04-01T12:09:13.851Z,95.19
2018-04-01T12:11:40.879Z,94.92
2018-04-01T12:14:08.077Z,95.58
2018-04-01T12:16:35.100Z,95.54
2018-04-01T12:19:02.154Z,95.94
2018-04-01T12:21:29.235Z,95.87
2018-04-01T12:23:56.263Z,95.75
2018-04-01T12:26:23.366Z,95.83
2018-04-01T12:28:50.395Z,95.23
2018-04-01T12:31:17.456Z,94.97
2018-04-01T12:33:44.470Z,94.77
2018-04-01T12:36:11.518Z,94.21
2018-04-01T12:38:38.553Z,92.84
2018-04-01T12:41:05.601Z,92.58
2018-04-01T12:43:32.926Z,91.54
2018-04-01T12:45:59.979Z,92.09
2018-04-01T12:48:27.022Z,92.24
2018-04-01T12:50:54.129Z,91.27
2018-04-01T12:53:21.158Z,91.19
2018-04-01T12:55:48.219Z,91.44
2018-04-01T12:58:15.311Z,92.17
2018-04-01T13:00:42.379Z,93.04
2018-04-01T13:03:09.491Z,92.58
2018-04-01T13:05:36.581Z,92.21
2018-04-01T13:08:03.874Z,91.95
2018-04-01T13:10:31.864Z,91.41
2018-04-01T13:12:59.018Z,90.67
2018-04-01T13:15:26.094Z,88.71
2018-04-01T13:17:53.192Z,88.55
2018-04-01T13:20:20.380Z,87.23
2018-04-01T13:22:47.619Z,86.74
2018-04-01T13:25:14.745Z,86.81
2018-04-01T13:27:41.859Z,87.15
2018-04-01T13:30:09.028Z,85.87
2018-04-01T13:32:36.128Z,84.63
2018-04-01T13:35:03.219Z,83.86
2018-04-01T13:37:30.253Z,84.48
2018-04-01T13:39:57.319Z,85.88
2018-04-01T13:42:24.418Z,85.28
2018-04-01T13:44:51.497Z,85.61
2018-04-01T13:47:18.542Z,84.01
2018-04-01T13:49:45.628Z,82.13
2018-04-01T13:52:12.683Z,79.90
2018-04-01T13:54:39.795Z,80.13
2018-04-01T13:57:06.839Z,77.09
2018-04-01T13:59:33.883Z,74.83
2018-04-01T14:02:00.926Z,74.49
2018-04-01T14:04:28.224Z,73.62
2018-04-01T14:06:55.267Z,74.74
2018-04-01T14:09:22.343Z,74.13
2018-04-01T14:11:49.395Z,74.38
2018-04-01T14:14:16.425Z,76.48
2018-04-01T14:16:43.681Z,76.86
2018-04-01T14:19:10.716Z,76.47
2018-04-01T14:21:37.787Z,79.57
2018-04-01T14:24:04.839Z,80.37
2018-04-01T14:26:31.912Z,81.86
2018-04-01T14:28:58.946Z,82.14
2018-04-01T14:31:26.020Z,83.25
2018-04-01T14:33:53.041Z,82.93
2018-04-01T14:36:20.106Z,82.62
2018-04-01T14:38:47.122Z,82.88
2018-04-01T14:41:14.198Z,82.68
2018-04-01T14:43:41.309Z,82.99
2018-04-01T14:46:08.332Z,83.47
2018-04-01T14:48:35.394Z,82.78
2018-04-01T14:51:02.407Z,83.59
2018-04-01T14:53:29.462Z,84.33
2018-04-01T14:55:56.572Z,84.31
2018-04-01T14:58:23.633Z,84.87
2018-04-01T15:00:50.650Z,85.09
2018-04-01T15:03:17.757Z,85.41
2018-04-01T15:05:44.778Z,85.81
2018-04-01T15:08:11.839Z,86.75
2018-04-01T15:10:38.870Z,87.79
2018-04-01T15:13:06.082Z,88.67
2018-04-01T15:15:33.180Z,88.35
2018-04-01T15:18:00.216Z,87.46
2018-04-01T15:20:27.277Z,86.54
2018-04-01T15:22:54.293Z,85.64
2018-04-01T15:25:21.347Z,85.05
2018-04-01T15:27:48.373Z,85.46
2018-04-01T15:30:15.414Z,85.42
2018-04-01T15:32:42.447Z,86.23
2018-04-01T15:35:09.499Z,86.32
2018-04-01T15:37:36.527Z,86.37
2018-04-01T15:40:03.602Z,86.56
2018-04-01T15:42:30.636Z,86.54
2018-04-01T15:44:57.696Z,86.69
2018-04-01T15:47:26.142Z,86.84
2018-04-01T15:49:53.193Z,87.31
2018-04-01T15:52:20.260Z,87.30
2018-04-01T15:54:47.303Z,87.10
2018-04-01T15:57:14.325Z,87.23
2018-04-01T15:59:41.369Z,87.56
2018-04-01T16:02:08.424Z,87.89
2018-04-01T16:04:35.600Z,87.58
2018-04-01T16:07:02.708Z,87.79
2018-04-01T16:09:29.787Z,87.82
2018-04-01T16:11:56.861Z,87.57
2018-04-01T16:14:23.921Z,87.54
2018-04-01T16:16:51.005Z,87.92
2018-04-01T16:19:18.057Z,88.12
2018-04-01T16:21:45.120Z,88.09
2018-04-01T16:24:12.171Z,87.19
2018-04-01T16:26:39.297Z,86.25
2018-04-01T16:29:06.391Z,86.25
2018-04-01T16:31:33.463Z,86.41
2018-04-01T16:34:00.552Z,87.10
2018-04-01T16:36:27.635Z,87.68
2018-04-01T16:38:54.662Z,87.78
2018-04-01T16:41:21.864Z,88.05
2018-04-01T16:43:48.889Z,87.79
2018-04-01T16:46:15.996Z,87.77
2018-04-01T16:48:43.003Z,88.71
2018-04-01T16:51:10.045Z,90.56
2018-04-01T16:53:37.094Z,91.98
2018-04-01T16:56:04.433Z,93.16
2018-04-01T16:58:31.498Z,93.60
2018-04-01T17:00:58.541Z,94.57
2018-04-01T17:03:25.626Z,96.23
2018-04-01T17:05:52.670Z,97.58
2018-04-01T17:08:19.846Z,98.24
2018-04-01T17:10:46.877Z,99.13
2018-04-01T17:13:14.063Z,99.34
2018-04-01T17:15:41.078Z,99.46
2018-04-01T17:18:08.172Z,99.77
2018-04-01T17:20:35.205Z,100.00
2018-04-01T17:23:02.287Z,100.00
2018-04-01T17:25:29.322Z,100.00
2018-04-01T17:27:56.375Z,100.00
2018-04-01T17:30:23.426Z,100.00
2018-04-01T17:32:50.500Z,100.00
2018-04-01T17:35:17.658Z,100.00
2018-04-01T17:37:44.908Z,100.00
2018-04-01T17:40:11.940Z,100.00
2018-04-01T17:42:38.994Z,100.00
2018-04-01T17:45:06.149Z,100.00
2018-04-01T17:47:33.197Z,100.00
2018-04-01T17:50:00.335Z,100.00
2018-04-01T17:52:27.381Z,100.00
2018-04-01T17:54:54.458Z,100.00
2018-04-01T17:57:21.486Z,100.00
2018-04-01T17:59:48.564Z,100.00
2018-04-01T18:02:15.681Z,100.00
2018-04-01T18:04:42.864Z,100.00
2018-04-01T18:07:09.898Z,100.00
2018-04-01T18:09:36.961Z,100.00
2018-04-01T18:12:04.002Z,100.00
2018-04-01T18:14:31.074Z,99.48
2018-04-01T18:16:58.108Z,99.48
2018-04-01T18:19:25.206Z,99.02
2018-04-01T18:21:52.240Z,98.82
2018-04-01T18:24:19.328Z,98.78
2018-04-01T18:26:46.506Z,98.71
2018-04-01T18:29:13.571Z,98.81
2018-04-01T18:31:40.618Z,98.45
2018-04-01T18:34:07.643Z,98.19
2018-04-01T18:36:34.703Z,98.36
2018-04-01T18:39:01.733Z,98.05
2018-04-01T18:41:28.797Z,98.10
2018-04-01T18:43:55.866Z,97.82
2018-04-01T18:46:22.939Z,97.49
2018-04-01T18:48:49.984Z,96.82
2018-04-01T18:51:17.125Z,96.75
2018-04-01T18:53:44.152Z,96.12
2018-04-01T18:56:11.214Z,96.15
2018-04-01T18:58:38.257Z,96.10
2018-04-01T19:01:05.444Z,95.79
2018-04-01T19:03:32.438Z,95.46
2018-04-01T19:05:59.577Z,95.44
2018-04-01T19:08:26.607Z,95.55
2018-04-01T19:10:53.653Z,95.67
2018-04-01T19:13:20.783Z,95.95
2018-04-01T19:15:47.820Z,95.67
2018-04-01T19:18:15.553Z,95.35
2018-04-01T19:20:43.205Z,95.28
2018-04-01T19:23:10.853Z,94.79
2018-04-01T19:25:38.527Z,94.56
2018-04-01T19:28:06.158Z,94.54
2018-04-01T19:30:33.788Z,94.41
2018-04-01T19:33:01.421Z,94.25
2018-04-01T19:35:29.020Z,94.45
2018-04-01T19:37:56.661Z,94.69
2018-04-01T19:40:24.302Z,94.99
2018-04-01T19:42:51.919Z,95.71
2018-04-01T19:45:19.556Z,95.86
2018-04-01T19:47:47.161Z,95.82
2018-04-01T19:50:14.800Z,95.75
2018-04-01T19:52:42.435Z,95.74
2018-04-01T19:55:10.102Z,95.78
2018-04-01T19:57:37.712Z,95.72
2018-04-01T20:00:05.358Z,95.94
2018-04-01T20:02:32.979Z,95.96
2018-04-01T20:05:00.651Z,95.94
2018-04-01T20:07:28.289Z,95.75
2018-04-01T20:09:55.949Z,95.78
2018-04-01T20:12:24.425Z,96.11
2018-04-01T20:14:52.177Z,96.13
2018-04-01T20:17:19.785Z,96.23
2018-04-01T20:19:47.431Z,96.16
2018-04-01T20:22:15.055Z,96.58
2018-04-01T20:24:42.716Z,96.88
2018-04-01T20:27:10.312Z,97.14
2018-04-01T20:29:38.282Z,96.82
2018-04-01T20:32:05.890Z,96.83
2018-04-01T20:34:33.506Z,97.15
2018-04-01T20:37:01.249Z,97.21
2018-04-01T20:39:29.158Z,97.31
2018-04-01T20:41:56.798Z,97.35
2018-04-01T20:44:24.491Z,96.79
2018-04-01T20:46:52.139Z,96.75
2018-04-01T20:49:19.752Z,96.63
2018-04-01T20:51:47.424Z,96.65
2018-04-01T20:54:15.013Z,96.50
2018-04-01T20:56:42.667Z,96.19
2018-04-01T20:59:10.275Z,96.20
2018-04-01T21:01:37.924Z,96.34
2018-04-01T21:04:05.535Z,96.48
2018-04-01T21:06:33.224Z,96.42
2018-04-01T21:09:00.853Z,96.37
2018-04-01T21:11:28.622Z,96.19
2018-04-01T21:13:56.278Z,96.29
2018-04-01T21:16:23.934Z,96.30
2018-04-01T21:18:51.658Z,96.38
2018-04-01T21:21:19.317Z,96.51
2018-04-01T21:23:46.949Z,96.52
2018-04-01T21:26:14.546Z,96.24
2018-04-01T21:28:42.244Z,96.22
2018-04-01T21:31:09.855Z,96.12
2018-04-01T21:33:37.474Z,96.09
2018-04-01T21:36:05.075Z,96.25
2018-04-01T21:38:32.710Z,96.41
2018-04-01T21:41:00.707Z,96.28
2018-04-01T21:43:28.369Z,96.34
2018-04-01T21:45:56.018Z,96.53
2018-04-01T21:48:23.700Z,96.58
2018-04-01T21:50:51.311Z,96.39
2018-04-01T21:53:19.008Z,96.12
2018-04-01T21:55:46.608Z,95.93
2018-04-01T21:58:14.289Z,95.63
2018-04-01T22:00:41.898Z,95.82
2018-04-01T22:03:09.575Z,96.11
2018-04-01T22:05:37.235Z,96.00
2018-04-01T22:08:04.891Z,95.52
2018-04-01T22:10:32.599Z,95.47
2018-04-01T22:13:00.276Z,95.74
2018-04-01T22:15:27.924Z,95.91
2018-04-01T22:17:55.521Z,95.84
2018-04-01T22:20:23.283Z,95.83
2018-04-01T22:23:02.842Z,95.73
2018-04-01T22:25:30.486Z,95.75
2018-04-01T22:27:58.174Z,95.74
2018-04-01T22:30:25.896Z,95.77
2018-04-01T22:32:53.471Z,95.79
2018-04-01T22:35:21.159Z,95.52
2018-04-01T22:37:48.787Z,95.11
2018-04-01T22:40:16.538Z,94.87
2018-04-01T22:42:44.123Z,94.67
2018-04-01T22:45:11.835Z,94.71
2018-04-01T22:47:39.544Z,94.86
2018-04-01T22:50:07.204Z,94.90
2018-04-01T22:52:34.802Z,94.79
2018-04-01T22:55:02.438Z,94.67
2018-04-01T22:57:30.049Z,94.81
2018-04-01T22:59:57.656Z,94.73
2018-04-01T23:02:25.296Z,94.63
2018-04-01T23:04:52.891Z,94.26
2018-04-01T23:07:20.523Z,94.13
2018-04-01T23:09:48.131Z,94.14
2018-04-01T23:12:15.900Z,94.18
2018-04-01T23:14:43.547Z,94.06
2018-04-01T23:17:11.224Z,93.82
2018-04-01T23:19:38.840Z,93.44
2018-04-01T23:22:06.476Z,93.39
2018-04-01T23:24:34.096Z,93.27
2018-04-01T23:27:01.721Z,93.45
2018-04-01T23:29:29.309Z,93.49
2018-04-01T23:31:56.956Z,93.61
2018-04-01T23:34:24.561Z,93.71
2018-04-01T23:36:52.187Z,93.80
2018-04-01T23:39:19.785Z,93.68
2018-04-01T23:41:47.424Z,93.46
2018-04-01T23:44:15.104Z,93.11
2018-04-01T23:46:42.750Z,93.13
2018-04-01T23:49:10.339Z,93.21
2018-04-01T23:51:37.987Z,93.01
2018-04-01T23:54:06.193Z,93.03
2018-04-01T23:56:33.211Z,92.87
2018-04-01T23:59:00.844Z,92.80
